createdAt,value
2018-12-31T00:00:01.253Z,13.9
2018-12-31T00:05:01.259Z,14.4
2018-12-31T00:10:01.352Z,15.0
2018-12-31T00:15:01.242Z,15.0
2018-12-31T00:20:01.310Z,15.3
2018-12-31T00:25:01.285Z,16.1
2018-12-31T00:30:01.253Z,16.6
2018-12-31T00:35:11.397Z,16.8
2018-12-31T00:40:02.835Z,16.5
2018-12-31T00:45:06.328Z,16.7
2018-12-31T00:50:07.305Z,15.8
2018-12-31T00:55:06.332Z,15.0
2018-12-31T01:00:06.278Z,13.8
2018-12-31T01:05:01.399Z,13.3
2018-12-31T01:10:01.310Z,12.9
2018-12-31T01:15:01.371Z,12.7
2018-12-31T01:20:06.259Z,13.0
2018-12-31T01:25:01.321Z,13.6
2018-12-31T01:30:01.252Z,14.5
2018-12-31T01:35:01.414Z,14.5
2018-12-31T01:40:01.251Z,14.6
2018-12-31T01:45:02.188Z,14.2
2018-12-31T01:50:02.209Z,14.0
2018-12-31T01:55:01.315Z,14.2
2018-12-31T02:00:01.387Z,13.7
2018-12-31T02:05:01.384Z,13.6
2018-12-31T02:10:01.261Z,13.5
2018-12-31T02:15:01.271Z,13.2
2018-12-31T02:21:01.300Z,13.4
2018-12-31T02:26:01.272Z,13.6
2018-12-31T02:31:01.371Z,14.1
2018-12-31T02:36:06.250Z,14.6
2018-12-31T02:41:01.375Z,14.1
2018-12-31T02:46:01.246Z,13.4
2018-12-31T02:51:01.318Z,13.2
2018-12-31T02:56:01.252Z,11.9
2018-12-31T03:01:11.342Z,11.0
2018-12-31T03:06:01.276Z,11.2
2018-12-31T03:11:01.347Z,10.6
2018-12-31T03:16:01.336Z,10.4
2018-12-31T03:21:01.359Z,10.5
2018-12-31T03:26:01.619Z,10.3
2018-12-31T03:31:01.515Z,9.7
2018-12-31T03:36:01.293Z,9.7
2018-12-31T03:41:01.352Z,9.2
2018-12-31T03:46:01.306Z,9.6
2018-12-31T03:51:01.351Z,9.8
2018-12-31T03:56:01.275Z,10.9
2018-12-31T04:01:01.409Z,10.7
2018-12-31T04:06:01.281Z,11.2
2018-12-31T04:11:01.412Z,10.4
2018-12-31T04:16:01.283Z,10.5
2018-12-31T04:21:01.352Z,10.8
2018-12-31T04:26:01.280Z,12.1
2018-12-31T04:36:01.378Z,12.4
2018-12-31T04:41:06.322Z,12.1
2018-12-31T04:46:01.265Z,11.0
2018-12-31T04:51:01.390Z,10.2
2018-12-31T05:06:01.373Z,11.1
2018-12-31T05:11:01.403Z,11.6
2018-12-31T05:16:01.249Z,12.0
2018-12-31T05:21:01.377Z,13.2
2018-12-31T05:26:01.248Z,13.6
2018-12-31T05:31:01.315Z,13.1
2018-12-31T05:36:06.256Z,13.3
2018-12-31T05:41:01.350Z,13.2
2018-12-31T05:46:01.282Z,13.2
2018-12-31T05:51:06.328Z,13.4
2018-12-31T05:56:11.278Z,14.1
2018-12-31T06:01:01.339Z,14.3
2018-12-31T06:06:01.246Z,15.1
2018-12-31T06:16:01.374Z,16.0
2018-12-31T06:26:01.373Z,15.7
2018-12-31T06:31:01.295Z,15.3
2018-12-31T06:36:01.250Z,15.4
2018-12-31T06:46:01.389Z,14.0
2018-12-31T06:51:01.320Z,14.6
2018-12-31T07:01:01.351Z,14.0
2018-12-31T07:06:01.292Z,14.5
2018-12-31T07:11:01.353Z,15.3
2018-12-31T07:16:01.282Z,16.2
2018-12-31T07:21:06.340Z,17.0
2018-12-31T07:26:01.301Z,16.9
2018-12-31T07:31:11.352Z,17.5
2018-12-31T07:36:06.262Z,17.0
2018-12-31T07:41:01.271Z,15.8
2018-12-31T07:46:01.253Z,14.3
2018-12-31T07:51:01.309Z,14.5
2018-12-31T07:56:01.378Z,13.8
2018-12-31T08:01:01.314Z,13.9
2018-12-31T08:06:11.263Z,13.6
2018-12-31T08:11:01.281Z,13.8
2018-12-31T08:16:01.285Z,14.2
2018-12-31T08:21:01.370Z,14.8
2018-12-31T08:26:01.285Z,15.0
2018-12-31T08:31:01.416Z,15.7
2018-12-31T08:36:01.256Z,16.0
2018-12-31T08:41:01.320Z,14.8
2018-12-31T08:46:01.258Z,13.2
2018-12-31T08:51:02.066Z,13.3
2018-12-31T08:56:01.260Z,12.0
2018-12-31T09:01:01.311Z,11.9
2018-12-31T09:06:01.257Z,12.9
2018-12-31T09:11:01.314Z,15.3
2018-12-31T09:16:01.249Z,18.3
2018-12-31T09:21:01.377Z,22.3
2018-12-31T09:26:01.289Z,24.4
2018-12-31T09:31:01.323Z,25.1
2018-12-31T09:36:07.286Z,24.3
2018-12-31T09:41:01.328Z,21.6
2018-12-31T09:46:02.296Z,19.2
2018-12-31T09:51:01.394Z,18.1
2018-12-31T09:56:01.351Z,16.1
2018-12-31T10:01:01.390Z,14.5
2018-12-31T10:06:01.261Z,12.8
2018-12-31T10:11:01.329Z,10.3
2018-12-31T10:17:01.249Z,8.9
2018-12-31T10:22:01.309Z,8.5
2018-12-31T10:27:11.269Z,7.7
2018-12-31T10:32:01.311Z,7.8
2018-12-31T10:37:01.247Z,8.4
2018-12-31T10:42:01.376Z,8.8
2018-12-31T10:47:01.254Z,8.6
2018-12-31T10:52:01.317Z,9.1
2018-12-31T10:57:01.253Z,8.6
2018-12-31T11:02:01.263Z,9.1
2018-12-31T11:07:01.257Z,8.6
2018-12-31T11:12:01.387Z,8.9
2018-12-31T11:17:01.253Z,9.2
2018-12-31T11:22:02.020Z,9.6
2018-12-31T11:27:01.243Z,9.4
2018-12-31T11:32:06.357Z,9.9
2018-12-31T11:37:01.272Z,9.6
2018-12-31T11:42:01.375Z,10.2
2018-12-31T11:47:01.260Z,12.1
2018-12-31T11:52:01.374Z,12.4
2018-12-31T11:57:01.251Z,12.2
2018-12-31T12:02:01.443Z,12.3
2018-12-31T12:07:01.251Z,12.2
2018-12-31T12:12:01.256Z,10.2
2018-12-31T12:17:01.288Z,10.3
2018-12-31T12:22:01.397Z,9.8
2018-12-31T12:27:01.254Z,10.6
2018-12-31T12:32:01.324Z,10.2
2018-12-31T12:37:01.503Z,10.9
2018-12-31T12:42:01.312Z,10.7
2018-12-31T12:47:01.248Z,11.5
2018-12-31T12:52:01.374Z,11.8
2018-12-31T12:57:01.253Z,12.3
2018-12-31T13:02:01.313Z,12.4
2018-12-31T13:07:01.250Z,12.3
2018-12-31T13:12:01.322Z,12.0
2018-12-31T13:17:01.434Z,11.0
2018-12-31T13:22:01.384Z,10.4
2018-12-31T13:27:01.249Z,9.8
2018-12-31T13:32:01.383Z,9.6
2018-12-31T13:37:01.323Z,8.9
2018-12-31T13:42:01.313Z,8.2
2018-12-31T13:47:01.250Z,7.7
2018-12-31T13:52:01.325Z,7.8
2018-12-31T13:57:01.632Z,7.5
2018-12-31T14:02:01.379Z,7.2
2018-12-31T14:07:01.252Z,8.2
2018-12-31T14:12:01.317Z,8.6
2018-12-31T14:17:01.295Z,8.5
2018-12-31T14:22:01.322Z,8.4
2018-12-31T14:32:06.411Z,12.6
2018-12-31T14:37:01.257Z,12.2
2018-12-31T14:42:01.457Z,11.4
2018-12-31T14:48:01.246Z,11.6
2018-12-31T14:53:01.309Z,11.8
2018-12-31T14:58:01.245Z,7.0
2018-12-31T15:03:01.377Z,7.5
2018-12-31T15:08:01.349Z,8.1
2018-12-31T15:13:01.375Z,8.2
2018-12-31T15:18:01.285Z,8.1
2018-12-31T15:23:01.349Z,8.6
2018-12-31T15:28:01.357Z,8.7
2018-12-31T15:33:01.415Z,9.0
2018-12-31T15:38:01.291Z,8.7
2018-12-31T15:43:01.408Z,8.9
2018-12-31T15:48:01.260Z,9.4
2018-12-31T15:53:01.381Z,9.4
2018-12-31T15:58:01.259Z,10.0
2018-12-31T16:03:01.325Z,10.5
2018-12-31T16:13:06.335Z,10.8
2018-12-31T16:18:01.268Z,12.0
2018-12-31T16:23:01.443Z,12.0
2018-12-31T16:33:01.436Z,12.0
2018-12-31T16:38:01.236Z,12.2
2018-12-31T16:43:01.706Z,12.5
2018-12-31T16:48:01.247Z,12.7
2018-12-31T16:53:01.376Z,12.8
2018-12-31T16:58:01.254Z,13.3
2018-12-31T17:03:03.126Z,13.8
2018-12-31T17:08:07.486Z,13.4
2018-12-31T17:13:01.427Z,13.5
2018-12-31T17:18:01.290Z,13.4
2018-12-31T17:23:01.419Z,12.6
2018-12-31T17:28:01.292Z,11.2
2018-12-31T17:33:01.745Z,10.8
2018-12-31T17:38:01.276Z,9.8
2018-12-31T17:43:01.534Z,10.0
2018-12-31T17:48:01.292Z,9.9
2018-12-31T17:53:06.392Z,9.7
2018-12-31T17:58:01.287Z,9.8
2018-12-31T18:03:06.327Z,9.5
2018-12-31T18:08:01.246Z,8.7
2018-12-31T18:13:01.380Z,8.8
2018-12-31T18:18:01.580Z,8.8
2018-12-31T18:23:01.328Z,8.5
2018-12-31T18:28:01.256Z,8.6
2018-12-31T18:33:01.301Z,8.4
2018-12-31T18:38:01.246Z,8.9
2018-12-31T18:43:01.375Z,9.1
2018-12-31T18:48:01.253Z,9.9
2018-12-31T18:53:01.311Z,10.6
2018-12-31T18:58:06.264Z,10.7
2018-12-31T19:03:07.354Z,9.7
2018-12-31T19:08:01.283Z,9.5
2018-12-31T19:13:06.320Z,8.8
2018-12-31T19:18:01.507Z,7.9
2018-12-31T19:23:01.323Z,8.5
2018-12-31T19:28:01.256Z,9.7
2018-12-31T19:33:01.318Z,13.0
2018-12-31T19:38:02.289Z,13.5
2018-12-31T19:44:01.858Z,16.5
2018-12-31T19:49:16.267Z,17.5
2018-12-31T19:54:01.379Z,18.3
2018-12-31T19:59:01.245Z,20.0
2018-12-31T20:04:01.310Z,21.0
2018-12-31T20:09:01.252Z,20.4
2018-12-31T20:14:01.314Z,20.8
2018-12-31T20:19:01.267Z,20.2
2018-12-31T20:24:01.379Z,16.2
2018-12-31T20:29:01.281Z,16.0
2018-12-31T20:34:01.345Z,14.6
2018-12-31T20:39:01.271Z,12.8
2018-12-31T20:44:01.423Z,12.2
2018-12-31T20:49:01.282Z,11.7
2018-12-31T20:54:01.413Z,9.9
2018-12-31T20:59:01.283Z,9.9
2018-12-31T21:04:01.283Z,10.4
2018-12-31T21:09:01.284Z,10.5
2018-12-31T21:14:01.324Z,10.9
2018-12-31T21:19:01.414Z,11.3
2018-12-31T21:24:01.313Z,11.4
2018-12-31T21:29:01.258Z,11.8
2018-12-31T21:34:06.520Z,11.4
2018-12-31T21:39:01.254Z,11.6
2018-12-31T21:44:01.317Z,12.1
2018-12-31T21:49:01.252Z,11.8
2018-12-31T21:54:01.315Z,12.6
2018-12-31T21:59:01.634Z,13.8
2018-12-31T22:04:01.243Z,13.4
2018-12-31T22:09:01.250Z,13.8
2018-12-31T22:14:01.372Z,14.2
2018-12-31T22:19:01.241Z,13.4
2018-12-31T22:24:01.305Z,12.7
2018-12-31T22:29:01.284Z,12.6
2018-12-31T22:34:01.409Z,11.8
2018-12-31T22:39:01.285Z,11.8
2018-12-31T22:44:06.322Z,11.2
2018-12-31T22:49:01.297Z,10.9
2018-12-31T22:54:01.356Z,10.4
2018-12-31T22:59:01.679Z,10.3
2018-12-31T23:04:01.426Z,13.0
2018-12-31T23:09:02.275Z,21.6
2018-12-31T23:14:01.393Z,32.2
2018-12-31T23:19:01.246Z,40.9
2018-12-31T23:24:01.312Z,52.0
2018-12-31T23:29:01.246Z,53.2
2018-12-31T23:34:01.419Z,47.9
2018-12-31T23:39:05.663Z,41.9
2018-12-31T23:44:01.318Z,37.3
2018-12-31T23:49:01.252Z,28.5
2018-12-31T23:54:01.365Z,30.6
2018-12-31T23:59:01.258Z,30.4
